createdAt,value
2023-03-17T00:39:23.800Z,0.60
2023-03-17T00:41:23.753Z,0.61
2023-03-17T00:42:23.742Z,0.62
2023-03-17T00:43:23.721Z,0.62
2023-03-17T00:44:23.704Z,0.61
2023-03-17T00:45:23.686Z,0.60
2023-03-17T00:46:23.713Z,0.58
2023-03-17T00:47:23.676Z,0.59
2023-03-17T00:48:23.654Z,0.59
2023-03-17T00:49:23.652Z,0.59
2023-03-17T00:56:23.531Z,0.61
2023-03-17T00:58:23.506Z,0.59
2023-03-17T02:13:22.425Z,0.54
2023-03-17T02:14:22.401Z,0.53
2023-03-17T02:15:22.375Z,0.57
2023-03-17T02:16:22.393Z,0.55
2023-03-17T02:17:22.341Z,0.56
2023-03-17T02:18:22.341Z,0.55
2023-03-17T02:19:22.337Z,0.56
2023-03-17T02:20:22.298Z,0.54
2023-03-17T02:21:22.352Z,0.57
2023-03-17T02:22:22.286Z,0.55
2023-03-17T02:23:22.315Z,0.55
2023-03-17T02:24:22.244Z,0.54
2023-03-17T02:25:22.232Z,0.56
2023-03-17T02:26:22.212Z,0.57
2023-03-17T02:27:22.206Z,0.56
2023-03-17T02:28:22.179Z,0.57
2023-03-17T02:29:22.174Z,0.55
2023-03-17T02:30:22.151Z,0.55
2023-03-17T02:31:22.148Z,0.53
2023-03-17T02:32:22.115Z,0.53
2023-03-17T02:33:22.115Z,0.54
2023-03-17T02:34:22.115Z,0.54
2023-03-17T02:35:22.099Z,0.54
2023-03-17T02:36:22.213Z,0.56
2023-03-17T02:37:22.056Z,0.55
2023-03-17T02:38:22.041Z,0.54
2023-03-17T02:39:22.037Z,0.55
2023-03-17T02:40:22.010Z,0.56
2023-03-17T02:41:22.010Z,0.55
2023-03-17T02:42:21.973Z,0.52
2023-03-17T02:43:21.966Z,0.53
2023-03-17T02:44:21.976Z,0.55
2023-03-17T02:45:21.922Z,0.55
2023-03-17T02:46:21.957Z,0.53
2023-03-17T02:47:21.929Z,0.55
2023-03-17T02:48:21.879Z,0.55
2023-03-17T02:49:21.867Z,0.52
2023-03-17T02:50:21.846Z,0.52
2023-03-17T02:51:21.833Z,0.53
2023-03-17T02:52:21.820Z,0.55
2023-03-17T02:53:21.817Z,0.53
2023-03-17T05:08:20.177Z,0.55
2023-03-17T05:09:20.168Z,0.53
2023-03-17T05:10:20.164Z,0.55
2023-03-17T05:11:20.179Z,0.54
2023-03-17T05:12:20.141Z,0.55
2023-03-17T05:13:20.128Z,0.57
2023-03-17T05:14:20.107Z,0.55
2023-03-17T05:15:20.103Z,0.53
2023-03-17T05:16:20.138Z,0.54
2023-03-17T05:17:20.077Z,0.57
2023-03-17T05:18:20.087Z,0.55
2023-03-17T05:19:20.061Z,0.53
2023-03-17T05:20:20.054Z,0.54
2023-03-17T05:21:20.045Z,0.56
2023-03-17T05:22:20.037Z,0.52
2023-03-17T05:23:20.017Z,0.52
2023-03-17T05:24:19.991Z,0.55
2023-03-17T05:25:19.991Z,0.53
2023-03-17T05:26:19.961Z,0.55
2023-03-17T05:27:19.957Z,0.55
2023-03-17T05:28:19.930Z,0.55
2023-03-17T05:29:19.926Z,0.56
2023-03-17T05:30:19.906Z,0.55
2023-03-17T05:31:19.905Z,0.54
2023-03-17T05:32:19.895Z,0.53
2023-03-17T05:33:19.873Z,0.53
2023-03-17T05:34:19.864Z,0.56
2023-03-17T05:35:19.847Z,0.56
2023-03-17T05:36:19.834Z,0.55
2023-03-17T05:37:19.836Z,0.54
2023-03-17T05:38:19.802Z,0.56
2023-03-17T05:39:19.796Z,0.55
2023-03-17T05:40:20.706Z,0.55
2023-03-17T05:41:19.791Z,0.53
2023-03-17T05:42:19.769Z,0.54
2023-03-17T05:43:19.737Z,0.53
2023-03-17T05:44:19.728Z,0.53
2023-03-17T05:45:19.712Z,0.55
2023-03-17T05:46:20.536Z,0.56
2023-03-17T05:47:19.703Z,0.56
2023-03-17T05:48:19.682Z,0.57
2023-03-17T05:49:19.667Z,0.55
2023-03-17T05:50:19.651Z,0.56
2023-03-17T05:51:19.650Z,0.57
2023-03-17T05:52:19.630Z,0.57
2023-03-17T05:53:19.698Z,0.57
2023-03-17T05:54:19.620Z,0.57
2023-03-17T05:55:19.598Z,0.56
2023-03-17T05:56:19.598Z,0.56
2023-03-17T05:57:19.570Z,0.55
2023-03-17T05:58:19.561Z,0.55
2023-03-17T05:59:19.563Z,0.55
2023-03-17T06:00:19.534Z,0.54
2023-03-17T06:01:19.526Z,0.53
2023-03-17T06:02:19.569Z,0.52
2023-03-17T06:03:19.579Z,0.52
2023-03-17T06:04:19.499Z,0.51
2023-03-17T06:05:19.501Z,0.50
2023-03-17T06:06:19.496Z,0.51
2023-03-17T06:07:19.510Z,0.50
2023-03-17T06:08:19.474Z,0.50
2023-03-17T06:09:19.465Z,0.50
2023-03-17T06:10:19.473Z,0.51
2023-03-17T06:11:19.450Z,0.50
2023-03-17T06:12:19.446Z,0.50
2023-03-17T06:13:19.435Z,0.50
2023-03-17T06:14:19.420Z,0.50
2023-03-17T06:15:19.418Z,0.52
2023-03-17T06:16:19.454Z,0.52
2023-03-17T06:17:19.384Z,0.51
2023-03-17T06:18:19.380Z,0.51
2023-03-17T06:19:19.350Z,0.52
2023-03-17T06:20:19.361Z,0.50
2023-03-17T06:21:19.334Z,0.51
2023-03-17T06:22:19.328Z,0.50
2023-03-17T06:23:19.311Z,0.50
2023-03-17T06:24:19.293Z,0.52
2023-03-17T06:25:19.275Z,0.51
2023-03-17T06:26:19.298Z,0.50
2023-03-17T06:27:19.271Z,0.50
2023-03-17T06:28:19.250Z,0.50
2023-03-17T06:29:19.385Z,0.52
2023-03-17T06:30:19.799Z,0.52
2023-03-17T06:31:19.365Z,0.54
2023-03-17T06:32:21.022Z,0.60
2023-03-17T06:33:19.237Z,0.66
2023-03-17T06:34:19.243Z,0.73
2023-03-17T06:35:19.237Z,0.77
2023-03-17T06:36:19.195Z,0.83
2023-03-17T06:37:19.163Z,0.90
2023-03-17T06:38:19.160Z,0.99
2023-03-17T06:39:19.144Z,1.06
2023-03-17T06:40:19.131Z,1.15
2023-03-17T06:41:19.136Z,1.18
2023-03-17T06:42:19.098Z,1.25
2023-03-17T06:43:19.084Z,1.35
2023-03-17T06:44:19.068Z,1.52
2023-03-17T06:45:19.057Z,1.60
2023-03-17T06:46:19.169Z,1.84
2023-03-17T06:47:19.074Z,1.85
2023-03-17T06:48:19.013Z,1.92
2023-03-17T06:49:18.990Z,2.15
2023-03-17T06:50:19.016Z,2.59
2023-03-17T06:51:19.709Z,3.39
2023-03-17T06:52:19.296Z,3.70
2023-03-17T06:53:18.910Z,3.92
2023-03-17T06:54:19.796Z,3.62
2023-03-17T06:55:19.814Z,3.73
2023-03-17T06:56:29.516Z,4.07
2023-03-17T06:57:19.799Z,4.08
2023-03-17T06:58:18.786Z,4.15
2023-03-17T06:59:18.744Z,4.27
2023-03-17T07:00:18.803Z,4.64
2023-03-17T07:01:18.818Z,5.44
2023-03-17T07:02:18.668Z,5.80
2023-03-17T07:03:18.624Z,6.24
2023-03-17T07:04:18.590Z,6.25
2023-03-17T07:05:18.580Z,6.10
2023-03-17T07:06:18.531Z,6.41
2023-03-17T07:07:18.799Z,6.96
2023-03-17T07:08:18.460Z,6.86
2023-03-17T07:09:18.427Z,7.00
2023-03-17T07:10:18.401Z,7.21
2023-03-17T07:11:18.385Z,7.40
2023-03-17T07:12:19.300Z,7.77
2023-03-17T07:13:18.298Z,8.14
2023-03-17T07:14:18.269Z,8.38
2023-03-17T07:15:18.233Z,9.73
2023-03-17T07:16:18.225Z,10.67
2023-03-17T07:17:18.142Z,11.18
2023-03-17T07:18:18.140Z,11.62
2023-03-17T07:19:18.065Z,21.42
2023-03-17T07:20:18.073Z,18.22
2023-03-17T07:21:18.143Z,16.15
2023-03-17T07:22:18.220Z,15.82
2023-03-17T07:23:18.015Z,15.18
2023-03-17T07:24:18.842Z,14.08
2023-03-17T07:25:18.040Z,13.48
2023-03-17T07:26:17.824Z,13.15
2023-03-17T07:27:17.781Z,13.22
2023-03-17T07:32:18.343Z,13.17
2023-03-17T10:24:32.752Z,9.31
2023-03-17T11:01:10.526Z,13.41
2023-03-17T11:02:10.484Z,13.11
2023-03-17T11:03:10.426Z,14.22
2023-03-17T11:04:10.405Z,14.70
2023-03-17T11:05:10.328Z,14.64
2023-03-17T11:06:10.293Z,16.24
2023-03-17T11:07:10.387Z,15.75
2023-03-17T11:08:10.213Z,15.13
2023-03-17T11:09:10.187Z,15.03
2023-03-17T11:10:10.117Z,15.75
2023-03-17T11:11:10.073Z,16.02
2023-03-17T11:12:10.035Z,18.04
2023-03-17T11:13:10.016Z,17.85
2023-03-17T11:14:09.937Z,15.94
2023-03-17T11:15:11.311Z,19.42
2023-03-17T11:16:09.914Z,18.41
2023-03-17T11:17:09.806Z,20.38
2023-03-17T11:18:09.873Z,19.57
2023-03-17T11:19:09.740Z,21.78
2023-03-17T11:20:09.671Z,22.06
2023-03-17T11:21:09.707Z,21.65
2023-03-17T11:22:09.569Z,21.55
2023-03-17T11:23:09.567Z,22.19
2023-03-17T11:24:09.504Z,23.28
2023-03-17T11:25:09.472Z,25.17
2023-03-17T11:26:09.400Z,24.25
2023-03-17T11:27:09.368Z,23.26
2023-03-17T11:28:09.337Z,23.53
2023-03-17T11:29:09.259Z,25.13
2023-03-17T11:30:09.200Z,24.70
2023-03-17T11:31:09.169Z,24.59
2023-03-17T11:32:09.122Z,24.68
2023-03-17T11:33:09.160Z,25.17
2023-03-17T11:34:09.044Z,25.10
2023-03-17T11:35:09.001Z,25.95
2023-03-17T11:36:09.023Z,26.53
2023-03-17T11:37:08.931Z,28.86
2023-03-17T11:38:08.843Z,29.44
2023-03-17T11:39:08.810Z,29.63
2023-03-17T11:40:08.756Z,29.70
2023-03-17T11:41:08.704Z,28.78
2023-03-17T11:42:08.671Z,32.57
2023-03-17T11:43:08.673Z,27.56
2023-03-17T11:44:08.642Z,22.18
2023-03-17T11:45:08.511Z,19.91
2023-03-17T11:46:08.586Z,16.46
2023-03-17T11:47:08.431Z,11.71
2023-03-17T11:48:08.412Z,6.15
2023-03-17T11:49:08.363Z,5.00
2023-03-17T11:50:08.325Z,4.45
2023-03-17T11:51:08.251Z,3.90
2023-03-17T11:52:08.249Z,2.89
2023-03-17T11:53:09.023Z,2.58
2023-03-17T11:54:08.145Z,2.41
2023-03-17T11:55:08.159Z,2.29
2023-03-17T11:56:08.117Z,2.28
2023-03-17T11:57:08.132Z,2.02
2023-03-17T11:58:08.008Z,1.97
2023-03-17T11:59:08.039Z,1.91
2023-03-17T12:00:07.992Z,1.82
2023-03-17T12:01:08.471Z,2.05
2023-03-17T12:02:08.455Z,2.29
2023-03-17T12:03:07.832Z,2.69
2023-03-17T12:04:07.993Z,2.73
2023-03-17T12:05:07.750Z,2.92
2023-03-17T12:16:07.983Z,1.42
2023-03-17T12:18:07.912Z,1.07
2023-03-17T12:19:08.952Z,1.23
2023-03-17T12:22:08.942Z,1.31
2023-03-17T15:19:00.473Z,2.66
2023-03-17T15:20:00.421Z,2.56
2023-03-17T15:21:00.432Z,2.58
2023-03-17T15:22:00.563Z,2.79
2023-03-17T15:23:00.383Z,2.98
2023-03-17T15:24:00.258Z,2.97
2023-03-17T15:25:00.231Z,2.94
2023-03-17T15:26:00.190Z,3.00
2023-03-17T15:27:00.161Z,2.93
2023-03-17T15:28:00.135Z,2.77
2023-03-17T15:29:00.094Z,2.77
2023-03-17T15:30:00.048Z,2.85
2023-03-17T15:31:00.058Z,2.83
2023-03-17T15:31:59.984Z,2.98
2023-03-17T15:32:59.961Z,2.90
2023-03-17T15:33:59.999Z,2.98
2023-03-17T15:34:59.857Z,2.94
2023-03-17T15:35:59.923Z,3.09
2023-03-17T15:36:59.792Z,3.07
2023-03-17T15:37:59.719Z,3.10
2023-03-17T15:38:59.694Z,2.81
2023-03-17T15:39:59.709Z,2.92
2023-03-17T15:40:59.662Z,3.03
2023-03-17T15:41:59.645Z,3.22
2023-03-17T15:42:59.557Z,3.21
2023-03-17T15:43:59.518Z,2.93
2023-03-17T15:44:59.476Z,3.07
2023-03-17T15:45:59.461Z,2.91
2023-03-17T15:46:59.518Z,2.83
2023-03-17T15:47:59.386Z,2.91
2023-03-17T15:49:00.013Z,2.90
2023-03-17T15:49:59.317Z,2.63
2023-03-17T15:50:59.267Z,2.85
2023-03-17T15:51:59.230Z,2.62
2023-03-17T15:52:59.199Z,2.76
2023-03-17T15:53:59.150Z,2.88
2023-03-17T15:54:59.101Z,2.95
2023-03-17T15:55:59.082Z,2.91
2023-03-17T15:56:59.051Z,2.82
2023-03-17T15:57:59.043Z,2.78
2023-03-17T15:58:58.938Z,2.93
2023-03-17T15:59:58.896Z,2.68
2023-03-17T16:00:58.903Z,2.75
2023-03-17T16:01:58.867Z,2.81
2023-03-17T16:02:58.840Z,2.75
2023-03-17T16:03:58.797Z,2.72
2023-03-17T16:04:58.731Z,2.72
2023-03-17T16:05:58.672Z,2.75
2023-03-17T16:06:58.652Z,2.76
2023-03-17T16:07:58.614Z,2.81
2023-03-17T16:08:58.574Z,2.90
2023-03-17T16:09:58.539Z,2.77
2023-03-17T16:10:58.531Z,2.75
2023-03-17T16:11:58.475Z,2.77
2023-03-17T16:12:58.442Z,2.68
2023-03-17T16:13:58.430Z,2.63
2023-03-17T16:15:03.529Z,2.75
2023-03-17T16:15:59.513Z,2.68
2023-03-17T16:16:58.303Z,2.67
2023-03-17T16:17:58.255Z,2.72
2023-03-17T16:18:58.222Z,2.80
2023-03-17T16:19:58.174Z,2.73
2023-03-17T16:20:58.161Z,2.71
2023-03-17T16:21:58.110Z,2.68
2023-03-17T16:22:58.077Z,2.64
2023-03-17T16:23:58.040Z,2.59
2023-03-17T16:24:58.008Z,2.57
2023-03-17T16:26:11.682Z,2.61
2023-03-17T16:26:58.956Z,2.61
2023-03-17T16:27:57.913Z,2.61
2023-03-17T16:28:57.892Z,2.44
2023-03-17T16:29:57.852Z,2.55
2023-03-17T16:30:57.926Z,2.63
2023-03-17T16:31:57.794Z,2.64
2023-03-17T16:32:57.795Z,2.53
2023-03-17T21:37:50.652Z,2.05
2023-03-17T21:38:50.646Z,1.98
2023-03-17T21:39:50.620Z,1.99
2023-03-17T21:40:50.622Z,1.98
2023-03-17T21:41:50.618Z,1.98
2023-03-17T21:42:50.583Z,2.02
2023-03-17T21:43:50.578Z,2.06
2023-03-17T21:44:50.564Z,2.14
2023-03-17T21:45:50.606Z,2.10
2023-03-17T21:46:50.521Z,2.12
2023-03-17T21:47:50.493Z,2.11
2023-03-17T21:48:50.522Z,2.11
2023-03-17T21:49:50.456Z,2.15
2023-03-17T21:50:50.457Z,2.07
2023-03-17T21:51:50.432Z,2.02
2023-03-17T21:52:50.433Z,2.12
2023-03-17T21:53:50.412Z,2.05
2023-03-17T21:54:50.399Z,2.04
2023-03-17T21:55:50.405Z,2.15
2023-03-17T21:56:50.367Z,2.06
2023-03-17T21:57:50.367Z,2.08
2023-03-17T21:58:50.343Z,2.10
2023-03-17T21:59:50.332Z,2.11
2023-03-17T22:00:50.730Z,2.08
2023-03-17T22:01:50.316Z,2.07
2023-03-17T22:02:50.309Z,2.11
2023-03-17T22:03:50.284Z,2.16
2023-03-17T22:04:50.294Z,2.15
2023-03-17T22:05:50.248Z,2.15
2023-03-17T22:06:50.222Z,2.16
2023-03-17T22:07:50.220Z,2.09
2023-03-17T22:08:50.193Z,2.11
2023-03-17T22:09:50.182Z,2.20
2023-03-17T22:10:50.180Z,2.18
2023-03-17T22:11:50.167Z,2.18
2023-03-17T22:12:50.123Z,2.19
2023-03-17T22:13:50.105Z,2.18
2023-03-17T22:14:50.097Z,2.19
2023-03-17T22:15:50.096Z,2.08
2023-03-17T22:16:50.102Z,2.05
2023-03-17T22:17:50.066Z,2.10
2023-03-17T22:18:50.067Z,2.13
2023-03-17T22:19:50.050Z,2.14
2023-03-17T22:20:50.039Z,2.09
2023-03-17T22:21:50.043Z,2.06
2023-03-17T22:22:50.008Z,2.07
2023-03-17T22:23:50.035Z,2.08
2023-03-17T22:24:50.691Z,2.07
2023-03-17T22:25:49.978Z,2.12
2023-03-17T22:26:49.971Z,2.12
2023-03-17T22:27:49.942Z,2.02
2023-03-17T22:28:49.956Z,2.02
2023-03-17T22:29:49.915Z,2.02
2023-03-17T22:30:49.912Z,2.07
2023-03-17T22:31:49.982Z,2.09
2023-03-17T22:32:49.924Z,2.14
2023-03-17T22:33:49.864Z,2.10
2023-03-17T22:34:49.870Z,2.12
2023-03-17T22:35:49.891Z,2.14
2023-03-17T22:36:49.847Z,2.11
2023-03-17T22:37:49.823Z,2.14
2023-03-17T22:38:49.804Z,2.02
2023-03-17T22:39:49.794Z,1.98
2023-03-17T22:40:49.783Z,2.06
2023-03-17T22:41:50.170Z,2.04
2023-03-17T22:42:49.771Z,2.03
2023-03-17T22:43:49.762Z,2.02
2023-03-17T22:44:49.755Z,2.05
2023-03-17T22:45:49.788Z,2.02
2023-03-17T22:46:49.739Z,2.07
2023-03-17T22:47:49.715Z,2.02
2023-03-17T22:48:49.706Z,2.02
2023-03-17T22:49:49.701Z,1.96
2023-03-17T22:50:49.681Z,1.95
2023-03-17T22:51:49.698Z,1.97
2023-03-17T22:52:49.668Z,1.97
2023-03-17T22:53:49.648Z,1.98
2023-03-17T22:54:49.638Z,2.00
2023-03-17T22:55:49.619Z,2.03
2023-03-17T22:56:49.650Z,2.10
2023-03-17T22:57:49.609Z,2.07
2023-03-17T22:58:49.589Z,2.06
2023-03-17T22:59:49.590Z,2.02
2023-03-17T23:00:49.605Z,1.93
2023-03-17T23:01:49.590Z,1.92
2023-03-17T23:02:49.567Z,1.92
2023-03-17T23:03:49.586Z,1.98
2023-03-17T23:04:49.531Z,1.93
2023-03-17T23:05:49.521Z,1.94
2023-03-17T23:06:49.548Z,1.97
2023-03-17T23:07:51.498Z,1.93
2023-03-17T23:08:49.500Z,1.92
2023-03-17T23:09:49.450Z,1.98
2023-03-17T23:10:49.436Z,2.00
2023-03-17T23:11:49.479Z,2.00
2023-03-17T23:12:49.440Z,1.96
2023-03-17T23:13:51.086Z,2.00
2023-03-17T23:14:49.432Z,2.00
2023-03-17T23:15:49.381Z,2.04
2023-03-17T23:16:49.429Z,2.00
2023-03-17T23:17:49.365Z,2.00
2023-03-17T23:18:49.347Z,2.01
2023-03-17T23:19:49.316Z,2.01
2023-03-17T23:20:49.304Z,2.02
2023-03-17T23:21:49.290Z,1.95
2023-03-17T23:22:49.290Z,1.95
2023-03-17T23:23:49.271Z,1.91
2023-03-17T23:24:49.237Z,2.00
2023-03-17T23:25:49.225Z,1.95
2023-03-17T23:26:49.215Z,1.91
2023-03-17T23:27:49.202Z,1.98
2023-03-17T23:28:49.180Z,1.92
2023-03-17T23:29:49.169Z,1.91
2023-03-17T23:30:49.213Z,1.97
2023-03-17T23:31:49.142Z,1.94
2023-03-17T23:32:49.201Z,1.95
2023-03-17T23:33:49.101Z,1.94
2023-03-17T23:34:49.099Z,1.93
2023-03-17T23:35:49.100Z,1.91
2023-03-17T23:36:49.049Z,1.90
2023-03-17T23:37:49.049Z,1.75
2023-03-17T23:38:49.030Z,1.75
2023-03-17T23:39:49.010Z,1.81
2023-03-17T23:40:49.003Z,1.83
2023-03-17T23:41:48.970Z,1.91
2023-03-17T23:42:49.009Z,1.91
2023-03-17T23:43:48.946Z,1.91
2023-03-17T23:44:48.940Z,1.92
2023-03-17T23:45:48.923Z,1.90
2023-03-17T23:46:48.898Z,1.83
2023-03-17T23:47:48.902Z,1.81
2023-03-17T23:48:48.880Z,1.81
2023-03-17T23:49:48.871Z,1.87
2023-03-17T23:50:48.868Z,1.85
2023-03-17T23:51:48.853Z,1.88
2023-03-17T23:52:48.840Z,1.87
2023-03-17T23:53:48.816Z,1.82
2023-03-17T23:54:48.807Z,1.81
2023-03-17T23:55:48.799Z,1.86
2023-03-17T23:56:48.804Z,1.86
2023-03-17T23:57:48.782Z,1.85
2023-03-17T23:58:48.773Z,1.86
2023-03-17T23:59:48.734Z,1.86
